createdAt,value
2022-09-15T00:01:53.233Z,19.09
2022-09-15T00:04:41.782Z,19.14
2022-09-15T00:07:31.289Z,19.15
2022-09-15T00:10:21.161Z,19.14
2022-09-15T00:13:09.620Z,19.10
2022-09-15T00:15:58.027Z,19.07
2022-09-15T00:18:47.127Z,18.36
2022-09-15T00:21:39.855Z,18.90
2022-09-15T00:24:28.426Z,18.98
2022-09-15T00:27:18.235Z,18.85
2022-09-15T00:30:08.126Z,18.91
2022-09-15T00:32:56.567Z,18.90
2022-09-15T00:35:46.400Z,18.89
2022-09-15T00:38:36.287Z,18.79
2022-09-15T00:41:25.850Z,18.81
2022-09-15T00:44:48.059Z,18.73
2022-09-15T00:47:39.437Z,18.63
2022-09-15T00:50:28.098Z,18.70
2022-09-15T00:53:17.442Z,18.67
2022-09-15T00:56:06.274Z,18.68
2022-09-15T00:59:01.288Z,18.68
2022-09-15T01:01:58.182Z,18.72
2022-09-15T01:04:46.964Z,18.66
2022-09-15T01:07:39.008Z,18.66
2022-09-15T01:10:29.361Z,18.61
2022-09-15T01:13:17.815Z,18.64
2022-09-15T01:16:13.225Z,18.62
2022-09-15T01:19:12.491Z,18.58
2022-09-15T01:22:09.180Z,18.57
2022-09-15T01:25:07.784Z,18.53
2022-09-15T01:28:21.909Z,18.52
2022-09-15T01:31:16.587Z,17.73
2022-09-15T01:34:08.152Z,18.47
2022-09-15T01:37:01.102Z,18.57
2022-09-15T01:39:51.751Z,18.53
2022-09-15T01:42:41.408Z,18.58
2022-09-15T01:45:32.310Z,18.61
2022-09-15T01:48:25.687Z,18.38
2022-09-15T01:51:14.918Z,18.52
2022-09-15T01:54:05.314Z,18.55
2022-09-15T01:56:53.847Z,18.54
2022-09-15T01:59:42.285Z,18.27
2022-09-15T02:02:34.364Z,18.58
2022-09-15T02:05:27.002Z,18.52
2022-09-15T02:08:25.276Z,18.52
2022-09-15T02:11:17.103Z,18.51
2022-09-15T02:14:11.351Z,18.54
2022-09-15T02:17:01.600Z,18.53
2022-09-15T02:19:52.295Z,18.41
2022-09-15T02:22:43.453Z,18.64
2022-09-15T02:25:34.675Z,18.60
2022-09-15T02:28:27.872Z,18.64
2022-09-15T02:31:18.668Z,18.76
2022-09-15T02:34:11.069Z,18.75
2022-09-15T02:36:59.948Z,18.71
2022-09-15T02:39:52.832Z,18.75
2022-09-15T02:42:42.483Z,18.81
2022-09-15T02:45:31.965Z,18.83
2022-09-15T02:48:20.569Z,18.81
2022-09-15T02:51:09.177Z,18.77
2022-09-15T02:53:57.603Z,18.69
2022-09-15T02:56:47.483Z,18.73
2022-09-15T02:59:50.082Z,18.74
2022-09-15T03:02:39.370Z,18.77
2022-09-15T03:05:30.385Z,18.74
2022-09-15T03:08:19.191Z,18.80
2022-09-15T03:11:10.353Z,18.86
2022-09-15T03:14:01.891Z,18.80
2022-09-15T03:16:50.281Z,18.75
2022-09-15T03:19:38.771Z,18.71
2022-09-15T03:22:27.176Z,18.80
2022-09-15T03:25:15.766Z,18.80
2022-09-15T03:28:04.267Z,18.80
2022-09-15T03:30:54.435Z,18.73
2022-09-15T03:33:42.866Z,18.73
2022-09-15T03:36:31.586Z,18.53
2022-09-15T03:39:20.002Z,18.79
2022-09-15T03:42:08.551Z,18.79
2022-09-15T03:44:57.177Z,18.88
2022-09-15T03:47:47.000Z,18.86
2022-09-15T03:50:35.675Z,18.84
2022-09-15T03:53:24.205Z,18.82
2022-09-15T03:56:25.446Z,18.87
2022-09-15T03:59:13.915Z,18.86
2022-09-15T04:02:02.432Z,18.89
2022-09-15T04:04:52.242Z,18.85
2022-09-15T04:07:41.071Z,18.89
2022-09-15T04:10:29.523Z,18.87
2022-09-15T04:13:17.956Z,18.92
2022-09-15T04:16:08.074Z,18.78
2022-09-15T04:18:56.960Z,18.84
2022-09-15T04:21:47.409Z,18.80
2022-09-15T04:24:35.844Z,18.85
2022-09-15T04:27:24.245Z,18.90
2022-09-15T04:30:13.371Z,18.81
2022-09-15T04:33:02.662Z,18.84
2022-09-15T04:35:51.079Z,18.88
2022-09-15T04:38:41.161Z,18.84
2022-09-15T04:41:29.825Z,18.83
2022-09-15T04:44:18.307Z,18.79
2022-09-15T04:47:07.290Z,18.69
2022-09-15T04:49:55.770Z,18.73
2022-09-15T04:52:44.175Z,18.65
2022-09-15T04:55:34.700Z,18.77
2022-09-15T04:58:23.097Z,18.65
2022-09-15T05:01:13.683Z,18.68
2022-09-15T05:04:03.766Z,18.59
2022-09-15T05:06:52.405Z,17.31
2022-09-15T05:09:40.907Z,18.65
2022-09-15T05:12:30.679Z,18.79
2022-09-15T05:15:19.588Z,18.73
2022-09-15T05:18:08.799Z,18.68
2022-09-15T05:20:59.681Z,18.64
2022-09-15T05:23:49.056Z,18.49
2022-09-15T05:26:37.530Z,18.60
2022-09-15T05:29:27.364Z,18.58
2022-09-15T05:32:15.833Z,18.67
2022-09-15T05:35:06.730Z,18.41
2022-09-15T05:37:55.151Z,18.56
2022-09-15T05:40:43.632Z,18.64
2022-09-15T05:43:33.906Z,18.57
2022-09-15T05:46:26.275Z,18.54
2022-09-15T05:49:14.994Z,18.51
2022-09-15T05:52:04.242Z,18.59
2022-09-15T05:54:56.934Z,18.61
2022-09-15T05:57:47.335Z,18.56
2022-09-15T06:00:35.837Z,17.85
2022-09-15T06:03:30.677Z,18.62
2022-09-15T06:06:19.711Z,18.59
2022-09-15T06:09:08.147Z,18.60
2022-09-15T06:11:56.631Z,18.52
2022-09-15T06:14:45.902Z,18.67
2022-09-15T06:17:34.532Z,18.62
2022-09-15T06:20:24.753Z,18.54
2022-09-15T06:23:14.180Z,18.57
2022-09-15T06:26:09.505Z,18.57
2022-09-15T06:28:59.281Z,18.54
2022-09-15T06:31:47.818Z,18.57
2022-09-15T06:34:36.359Z,18.59
2022-09-15T06:37:26.239Z,18.62
2022-09-15T06:40:14.874Z,18.53
2022-09-15T06:43:03.376Z,18.56
2022-09-15T06:45:52.200Z,18.59
2022-09-15T06:48:44.226Z,18.57
2022-09-15T06:51:35.943Z,18.55
2022-09-15T06:54:25.747Z,18.52
2022-09-15T06:57:14.285Z,18.49
2022-09-15T07:00:03.447Z,18.52
2022-09-15T07:02:51.973Z,18.51
2022-09-15T07:05:40.839Z,18.37
2022-09-15T07:08:29.296Z,18.40
2022-09-15T07:11:19.292Z,18.38
2022-09-15T07:14:07.942Z,18.40
2022-09-15T07:16:56.581Z,18.48
2022-09-15T07:19:45.879Z,18.44
2022-09-15T07:22:34.324Z,18.36
2022-09-15T07:25:22.917Z,18.36
2022-09-15T07:28:12.857Z,17.92
2022-09-15T07:31:01.305Z,17.59
2022-09-15T07:33:50.333Z,17.50
2022-09-15T07:36:38.926Z,17.28
2022-09-15T07:39:27.496Z,17.08
2022-09-15T07:42:15.966Z,16.84
2022-09-15T07:45:06.734Z,16.57
2022-09-15T07:47:55.805Z,16.59
2022-09-15T07:50:47.406Z,16.64
2022-09-15T07:53:35.848Z,16.56
2022-09-15T07:56:24.571Z,16.25
2022-09-15T07:59:13.247Z,16.30
2022-09-15T08:02:03.130Z,16.29
2022-09-15T08:04:51.659Z,16.32
2022-09-15T08:07:40.597Z,16.28
2022-09-15T08:10:29.047Z,16.30
2022-09-15T08:13:17.514Z,16.24
2022-09-15T08:16:07.950Z,16.14
2022-09-15T08:18:57.751Z,16.13
2022-09-15T08:21:46.187Z,16.20
2022-09-15T08:24:34.618Z,16.13
2022-09-15T08:27:23.905Z,16.00
2022-09-15T08:30:13.618Z,16.04
2022-09-15T08:33:02.075Z,16.01
2022-09-15T08:35:51.923Z,16.05
2022-09-15T08:38:41.332Z,16.03
2022-09-15T08:41:32.287Z,16.05
2022-09-15T08:44:36.114Z,16.16
2022-09-15T08:47:26.405Z,16.22
2022-09-15T08:50:22.852Z,16.16
2022-09-15T08:53:15.293Z,16.01
2022-09-15T08:56:09.767Z,16.05
2022-09-15T08:58:58.560Z,16.09
2022-09-15T09:02:14.012Z,16.03
2022-09-15T09:05:10.391Z,15.98
2022-09-15T09:08:37.761Z,16.01
2022-09-15T09:11:32.257Z,16.01
2022-09-15T09:14:26.878Z,16.02
2022-09-15T09:17:26.314Z,15.99
2022-09-15T09:20:35.114Z,15.96
2022-09-15T09:23:27.257Z,16.00
2022-09-15T09:26:17.799Z,15.95
2022-09-15T09:29:12.028Z,15.87
2022-09-15T09:32:00.569Z,15.93
2022-09-15T09:34:56.652Z,15.93
2022-09-15T09:37:45.488Z,15.92
2022-09-15T09:40:35.085Z,15.94
2022-09-15T09:43:25.088Z,15.91
2022-09-15T09:46:16.425Z,15.91
2022-09-15T09:49:06.674Z,15.91
2022-09-15T09:51:57.092Z,15.85
2022-09-15T09:54:45.563Z,15.99
2022-09-15T09:57:40.523Z,15.89
2022-09-15T10:00:34.879Z,15.71
2022-09-15T10:03:27.073Z,15.88
2022-09-15T10:06:22.143Z,15.68
2022-09-15T10:09:15.945Z,15.02
2022-09-15T10:12:05.503Z,15.51
2022-09-15T10:14:56.048Z,15.74
2022-09-15T10:17:46.575Z,15.83
2022-09-15T10:20:36.423Z,15.80
2022-09-15T10:23:26.565Z,15.75
2022-09-15T10:26:23.683Z,14.28
2022-09-15T10:29:16.161Z,15.71
2022-09-15T10:32:20.592Z,15.76
2022-09-15T10:35:14.980Z,15.70
2022-09-15T10:38:06.155Z,15.82
2022-09-15T10:40:59.846Z,15.87
2022-09-15T10:43:59.909Z,15.93
2022-09-15T10:46:54.638Z,16.00
2022-09-15T10:49:56.966Z,15.95
2022-09-15T10:52:58.314Z,15.91
2022-09-15T10:55:53.656Z,15.96
2022-09-15T10:59:03.715Z,16.08
2022-09-15T11:02:01.755Z,16.22
2022-09-15T11:04:59.392Z,16.14
2022-09-15T11:08:08.977Z,16.31
2022-09-15T11:11:02.546Z,16.39
2022-09-15T11:13:59.615Z,16.42
2022-09-15T11:16:58.151Z,16.31
2022-09-15T11:20:14.589Z,16.49
2022-09-15T11:23:07.645Z,16.63
2022-09-15T11:25:59.703Z,16.60
2022-09-15T11:28:51.480Z,16.65
2022-09-15T11:31:42.028Z,16.70
2022-09-15T11:34:34.261Z,16.71
2022-09-15T11:37:24.962Z,16.61
2022-09-15T11:40:18.455Z,16.66
2022-09-15T11:43:14.894Z,16.87
2022-09-15T11:46:09.014Z,17.09
2022-09-15T11:49:02.347Z,17.10
2022-09-15T11:51:55.384Z,17.36
2022-09-15T11:54:47.921Z,17.36
2022-09-15T11:57:43.187Z,17.55
2022-09-15T12:00:31.839Z,17.72
2022-09-15T12:03:25.204Z,17.79
2022-09-15T12:06:17.211Z,17.76
2022-09-15T12:09:07.378Z,17.85
2022-09-15T12:11:58.815Z,17.77
2022-09-15T12:14:50.609Z,17.85
2022-09-15T12:17:43.075Z,17.81
2022-09-15T12:20:36.845Z,17.89
2022-09-15T12:23:32.114Z,17.83
2022-09-15T12:26:22.324Z,17.75
2022-09-15T12:29:34.989Z,18.12
2022-09-15T12:32:28.790Z,18.27
2022-09-15T12:35:32.108Z,18.16
2022-09-15T12:38:24.049Z,18.21
2022-09-15T12:41:12.564Z,18.08
2022-09-15T12:44:07.379Z,18.08
2022-09-15T12:46:57.962Z,18.08
2022-09-15T12:49:49.635Z,18.13
2022-09-15T12:52:45.804Z,18.18
2022-09-15T12:55:36.273Z,18.47
2022-09-15T12:58:30.533Z,18.39
2022-09-15T13:01:33.663Z,18.90
2022-09-15T13:04:57.959Z,19.20
2022-09-15T13:07:57.035Z,19.42
2022-09-15T13:11:01.462Z,19.55
2022-09-15T13:13:52.921Z,19.68
2022-09-15T13:16:47.126Z,19.64
2022-09-15T13:19:41.527Z,19.70
2022-09-15T13:22:35.275Z,19.66
2022-09-15T13:25:26.190Z,19.97
2022-09-15T13:31:29.953Z,20.16
2022-09-15T13:35:07.794Z,20.33
2022-09-15T13:38:31.638Z,20.32
2022-09-15T13:41:40.327Z,20.16
2022-09-15T13:44:47.431Z,20.46
2022-09-15T13:47:45.839Z,20.49
2022-09-15T13:50:36.293Z,20.31
2022-09-15T13:53:37.837Z,20.52
2022-09-15T13:56:28.777Z,20.53
2022-09-15T13:59:19.955Z,20.53
2022-09-15T14:02:09.855Z,20.38
2022-09-15T14:04:58.587Z,20.60
2022-09-15T14:07:53.284Z,20.63
2022-09-15T14:10:47.337Z,20.52
2022-09-15T14:13:37.918Z,20.61
2022-09-15T14:16:33.897Z,20.55
2022-09-15T14:19:30.534Z,20.62
2022-09-15T14:22:28.017Z,20.68
2022-09-15T14:25:18.233Z,20.68
2022-09-15T14:28:17.291Z,20.51
2022-09-15T14:31:06.027Z,20.36
2022-09-15T14:33:54.674Z,20.34
2022-09-15T14:36:43.358Z,20.44
2022-09-15T14:39:33.446Z,20.51
2022-09-15T14:42:26.048Z,20.56
2022-09-15T14:48:28.238Z,20.38
2022-09-15T14:51:21.176Z,20.39
2022-09-15T14:54:16.340Z,20.44
2022-09-15T14:57:08.921Z,20.34
2022-09-15T14:59:59.343Z,20.17
2022-09-15T15:03:01.366Z,20.21
2022-09-15T15:06:02.253Z,20.33
2022-09-15T15:08:56.325Z,20.39
2022-09-15T15:11:44.899Z,20.31
2022-09-15T15:14:33.886Z,20.24
2022-09-15T15:17:29.656Z,20.06
2022-09-15T15:20:23.016Z,20.26
2022-09-15T15:23:15.444Z,20.24
2022-09-15T15:26:26.389Z,20.21
2022-09-15T15:29:45.919Z,20.23
2022-09-15T15:32:35.159Z,20.22
2022-09-15T15:35:25.432Z,20.20
2022-09-15T15:38:17.628Z,19.98
2022-09-15T15:41:07.985Z,19.81
2022-09-15T15:44:03.429Z,19.74
2022-09-15T15:46:54.113Z,19.69
2022-09-15T15:50:02.375Z,19.56
2022-09-15T15:52:53.756Z,19.58
2022-09-15T15:55:43.860Z,19.58
2022-09-15T15:58:33.109Z,19.62
2022-09-15T16:01:22.380Z,19.61
2022-09-15T16:04:12.176Z,19.53
2022-09-15T16:07:00.814Z,19.53
2022-09-15T16:09:51.441Z,19.44
2022-09-15T16:12:39.942Z,19.42
2022-09-15T16:15:28.606Z,19.15
2022-09-15T16:18:17.648Z,19.42
2022-09-15T16:21:06.305Z,19.45
2022-09-15T16:23:54.777Z,19.49
2022-09-15T16:26:44.669Z,19.37
2022-09-15T16:29:36.243Z,19.44
2022-09-15T16:32:25.516Z,19.38
2022-09-15T16:35:34.510Z,19.30
2022-09-15T16:38:25.756Z,19.28
2022-09-15T16:41:16.069Z,19.24
2022-09-15T16:44:08.203Z,19.14
2022-09-15T16:46:56.859Z,19.21
2022-09-15T16:49:45.340Z,19.20
2022-09-15T16:52:33.809Z,19.21
2022-09-15T16:55:32.793Z,19.18
2022-09-15T16:58:22.162Z,18.95
2022-09-15T17:01:18.047Z,19.13
2022-09-15T17:04:10.848Z,19.08
2022-09-15T17:06:59.290Z,19.02
2022-09-15T17:09:49.910Z,19.03
2022-09-15T17:12:38.968Z,18.98
2022-09-15T17:15:28.784Z,18.80
2022-09-15T17:18:18.608Z,18.86
2022-09-15T17:21:07.288Z,18.73
2022-09-15T17:23:55.849Z,18.78
2022-09-15T17:26:44.456Z,18.74
2022-09-15T17:29:33.129Z,18.64
2022-09-15T17:32:21.665Z,18.58
2022-09-15T17:35:18.172Z,18.54
2022-09-15T17:38:08.063Z,18.39
2022-09-15T17:40:56.859Z,18.41
2022-09-15T17:43:45.704Z,18.26
2022-09-15T17:46:34.448Z,18.27
2022-09-15T17:49:22.929Z,18.36
2022-09-15T17:52:13.136Z,18.33
2022-09-15T17:55:02.146Z,18.20
2022-09-15T17:57:51.288Z,18.00
2022-09-15T18:00:42.379Z,18.20
2022-09-15T18:03:34.649Z,18.11
2022-09-15T18:06:23.114Z,18.05
2022-09-15T18:09:14.809Z,18.00
2022-09-15T18:12:04.688Z,17.88
2022-09-15T18:14:53.150Z,17.78
2022-09-15T18:17:41.787Z,17.77
2022-09-15T18:20:33.645Z,17.51
2022-09-15T18:23:24.136Z,17.65
2022-09-15T18:26:14.252Z,17.59
2022-09-15T18:29:03.460Z,17.62
2022-09-15T18:31:52.889Z,17.49
2022-09-15T18:34:41.457Z,17.33
2022-09-15T18:37:30.025Z,17.21
2022-09-15T18:40:19.563Z,17.14
2022-09-15T18:43:09.938Z,17.12
2022-09-15T18:46:02.174Z,17.02
2022-09-15T18:48:50.688Z,16.99
2022-09-15T18:51:51.267Z,16.87
2022-09-15T18:54:40.630Z,16.83
2022-09-15T18:57:29.157Z,16.85
2022-09-15T19:00:20.882Z,16.78
2022-09-15T19:03:10.322Z,16.52
2022-09-15T19:06:03.604Z,16.58
2022-09-15T19:08:52.180Z,16.26
2022-09-15T19:11:41.006Z,16.51
2022-09-15T19:14:29.929Z,16.43
2022-09-15T19:17:19.737Z,16.37
2022-09-15T19:20:10.653Z,16.31
2022-09-15T19:22:59.129Z,16.00
2022-09-15T19:25:47.657Z,16.17
2022-09-15T19:28:36.114Z,16.09
2022-09-15T19:31:26.294Z,16.04
2022-09-15T19:34:16.245Z,15.99
2022-09-15T19:37:10.670Z,15.93
2022-09-15T19:40:01.075Z,15.86
2022-09-15T19:42:51.344Z,15.67
2022-09-15T19:45:43.449Z,15.74
2022-09-15T19:48:35.153Z,15.63
2022-09-15T19:51:27.262Z,15.61
2022-09-15T19:54:15.714Z,15.51
2022-09-15T19:57:04.536Z,15.61
2022-09-15T19:59:52.940Z,15.56
2022-09-15T20:02:41.665Z,15.19
2022-09-15T20:05:32.105Z,15.43
2022-09-15T20:08:22.259Z,15.41
2022-09-15T20:11:11.236Z,15.30
2022-09-15T20:14:00.169Z,15.31
2022-09-15T20:16:48.777Z,15.34
2022-09-15T20:19:37.359Z,15.26
2022-09-15T20:22:26.113Z,15.23
2022-09-15T20:25:16.055Z,15.15
2022-09-15T20:28:04.592Z,15.09
2022-09-15T20:31:00.861Z,15.04
2022-09-15T20:33:50.292Z,14.96
2022-09-15T20:36:39.164Z,14.80
2022-09-15T20:39:27.642Z,14.90
2022-09-15T20:42:17.481Z,14.82
2022-09-15T20:45:07.043Z,14.76
2022-09-15T20:47:55.508Z,14.84
2022-09-15T20:50:44.042Z,14.81
2022-09-15T20:53:32.826Z,14.78
2022-09-15T20:56:24.786Z,14.78
2022-09-15T20:59:15.395Z,14.65
2022-09-15T21:02:04.758Z,14.72
2022-09-15T21:04:53.294Z,14.57
2022-09-15T21:07:41.716Z,14.52
2022-09-15T21:10:30.481Z,14.64
2022-09-15T21:13:19.652Z,14.68
2022-09-15T21:16:10.979Z,14.28
2022-09-15T21:18:59.822Z,14.75
2022-09-15T21:21:48.860Z,14.31
2022-09-15T21:24:37.315Z,14.72
2022-09-15T21:27:28.754Z,14.44
2022-09-15T21:30:17.839Z,14.62
2022-09-15T21:33:08.230Z,14.62
2022-09-15T21:36:03.317Z,14.67
2022-09-15T21:38:53.286Z,14.68
2022-09-15T21:41:41.844Z,14.60
2022-09-15T21:44:30.401Z,14.59
2022-09-15T21:47:19.031Z,14.58
2022-09-15T21:50:09.816Z,14.56
2022-09-15T21:52:58.376Z,14.59
2022-09-15T21:55:46.890Z,14.59
2022-09-15T21:58:42.293Z,14.57
2022-09-15T22:01:33.312Z,13.67
2022-09-15T22:04:21.833Z,14.53
2022-09-15T22:07:12.093Z,14.50
2022-09-15T22:10:00.553Z,14.43
2022-09-15T22:12:48.989Z,14.47
2022-09-15T22:15:37.703Z,14.44
2022-09-15T22:18:26.241Z,14.42
2022-09-15T22:21:16.298Z,14.42
2022-09-15T22:24:07.801Z,14.48
2022-09-15T22:26:56.241Z,14.32
2022-09-15T22:29:44.694Z,14.33
2022-09-15T22:32:33.250Z,14.46
2022-09-15T22:35:21.728Z,14.49
2022-09-15T22:38:10.216Z,14.39
2022-09-15T22:41:05.970Z,14.45
2022-09-15T22:43:54.469Z,14.36
2022-09-15T22:46:42.935Z,14.48
2022-09-15T22:49:31.381Z,14.58
2022-09-15T22:52:21.078Z,14.62
2022-09-15T22:55:10.034Z,14.56
2022-09-15T22:57:59.912Z,14.64
2022-09-15T23:00:48.388Z,14.62
2022-09-15T23:03:37.669Z,14.64
2022-09-15T23:06:28.084Z,13.81
2022-09-15T23:09:16.622Z,14.64
2022-09-15T23:12:05.379Z,14.68
2022-09-15T23:14:55.181Z,14.72
2022-09-15T23:17:43.795Z,14.75
2022-09-15T23:20:32.481Z,14.71
2022-09-15T23:23:20.918Z,14.77
2022-09-15T23:26:11.222Z,14.73
2022-09-15T23:28:59.696Z,14.74
2022-09-15T23:31:49.604Z,14.76
2022-09-15T23:34:38.090Z,14.79
2022-09-15T23:37:26.523Z,14.78
2022-09-15T23:40:15.044Z,14.80
2022-09-15T23:43:03.465Z,14.75
2022-09-15T23:45:53.532Z,14.76
2022-09-15T23:48:43.584Z,14.81
2022-09-15T23:51:32.120Z,14.82
2022-09-15T23:54:20.582Z,14.83
2022-09-15T23:57:11.685Z,14.85
